Terminal Aerodrome Forecast
Issued by NWS

Home | Current Version | Previous Version | Text Only | Print | Product List | Glossary On
Versions: 1 2 3 4 5 6 7 8 9 10 11 12 13
000
FTUS43 KAPX 031138
TAFMBL
TAF
KMBL 031138Z 0312/0412 15004KT P6SM FEW120
     FM031400 21011G20KT P6SM SCT120
     FM040100 19007KT P6SM BKN120 WS020/20038KT
     FM040500 21007KT 4SM -SHRA OVC040 WS020/22036KT
     FM040900 27006KT 4SM -SHRA BR OVC022
      AMD LTD TO CLD VIS AND WIND=

USA.gov is the U.S. government's official web portal to all federal, state and local government web resources and services.